createdAt,value
2019-05-12T00:00:00.942Z,10.67
2019-05-12T00:02:35.284Z,10.72
2019-05-12T00:05:09.941Z,10.64
2019-05-12T00:07:44.631Z,10.53
2019-05-12T00:10:19.612Z,10.50
2019-05-12T00:12:54.237Z,10.60
2019-05-12T00:15:28.690Z,10.58
2019-05-12T00:18:03.259Z,10.58
2019-05-12T00:20:38.611Z,10.53
2019-05-12T00:23:24.001Z,10.57
2019-05-12T00:25:48.248Z,10.49
2019-05-12T00:28:22.677Z,10.49
2019-05-12T00:30:58.050Z,10.42
2019-05-12T00:33:33.110Z,10.39
2019-05-12T00:36:08.026Z,10.34
2019-05-12T00:38:42.584Z,10.35
2019-05-12T00:41:18.165Z,10.35
2019-05-12T00:43:52.720Z,10.30
2019-05-12T00:46:27.825Z,10.21
2019-05-12T00:49:02.337Z,10.13
2019-05-12T00:51:38.460Z,10.24
2019-05-12T00:54:13.274Z,10.24
2019-05-12T00:56:48.212Z,10.26
2019-05-12T00:59:23.138Z,10.30
2019-05-12T01:01:58.767Z,10.22
2019-05-12T01:04:33.278Z,10.22
2019-05-12T01:07:08.716Z,10.22
2019-05-12T01:09:43.268Z,10.18
2019-05-12T01:12:18.176Z,10.21
2019-05-12T01:14:52.716Z,10.19
2019-05-12T01:17:28.184Z,10.13
2019-05-12T01:20:03.269Z,10.10
2019-05-12T01:22:38.220Z,10.09
2019-05-12T01:25:13.275Z,10.03
2019-05-12T01:27:48.326Z,9.99
2019-05-12T01:30:22.932Z,10.01
2019-05-12T01:32:58.163Z,9.96
2019-05-12T01:35:33.243Z,9.89
2019-05-12T01:38:08.157Z,9.86
2019-05-12T01:40:43.264Z,9.87
2019-05-12T01:43:18.618Z,9.83
2019-05-12T01:45:54.058Z,9.80
2019-05-12T01:48:28.916Z,9.75
2019-05-12T01:51:03.579Z,9.75
2019-05-12T01:53:38.034Z,9.72
2019-05-12T01:56:12.334Z,9.71
2019-05-12T01:58:48.429Z,9.71
2019-05-12T02:01:22.935Z,9.69
2019-05-12T02:03:58.573Z,9.75
2019-05-12T02:06:34.542Z,9.75
2019-05-12T02:09:13.109Z,9.78
2019-05-12T02:11:48.326Z,9.76
2019-05-12T02:14:24.265Z,9.76
2019-05-12T02:16:58.829Z,9.78
2019-05-12T02:19:34.002Z,9.79
2019-05-12T02:22:08.493Z,9.79
2019-05-12T02:24:43.272Z,9.81
2019-05-12T02:27:17.944Z,9.83
2019-05-12T02:29:51.092Z,9.85
2019-05-12T02:32:29.432Z,9.85
2019-05-12T02:35:01.297Z,9.90
2019-05-12T02:37:36.089Z,9.99
2019-05-12T02:40:15.085Z,9.95
2019-05-12T02:42:48.921Z,9.95
2019-05-12T02:45:24.830Z,9.96
2019-05-12T02:47:59.271Z,9.96
2019-05-12T02:50:38.673Z,9.96
2019-05-12T02:53:14.485Z,9.94
2019-05-12T02:55:54.086Z,9.98
2019-05-12T02:58:28.621Z,9.97
2019-05-12T03:01:05.688Z,9.90
2019-05-12T03:03:44.124Z,9.81
2019-05-12T03:06:19.941Z,9.79
2019-05-12T03:08:55.120Z,9.79
2019-05-12T03:11:30.692Z,9.78
2019-05-12T03:14:04.936Z,9.76
2019-05-12T03:16:39.251Z,9.76
2019-05-12T03:19:15.011Z,9.76
2019-05-12T03:21:49.922Z,9.76
2019-05-12T03:24:25.005Z,9.72
2019-05-12T03:26:59.308Z,9.67
2019-05-12T03:29:34.516Z,9.71
2019-05-12T03:32:09.143Z,9.74
2019-05-12T03:34:47.483Z,9.76
2019-05-12T03:37:20.302Z,9.78
2019-05-12T03:42:14.556Z,9.74
2019-05-12T03:44:49.103Z,9.71
2019-05-12T03:47:25.067Z,9.71
2019-05-12T03:49:59.921Z,9.71
2019-05-12T03:52:34.910Z,9.70
2019-05-12T03:55:29.650Z,9.70
2019-05-12T03:57:45.182Z,9.72
2019-05-12T04:00:19.734Z,9.72
2019-05-12T04:02:55.588Z,9.72
2019-05-12T04:05:30.938Z,9.73
2019-05-12T04:08:05.549Z,9.74
2019-05-12T04:10:39.921Z,9.74
2019-05-12T04:13:15.122Z,9.77
2019-05-12T04:15:51.271Z,9.79
2019-05-12T04:18:25.789Z,9.81
2019-05-12T04:20:58.997Z,9.79
2019-05-12T04:23:34.637Z,9.81
2019-05-12T04:26:12.094Z,9.86
2019-05-12T04:28:45.601Z,9.76
2019-05-12T04:31:20.272Z,9.76
2019-05-12T04:33:54.986Z,9.77
2019-05-12T04:36:29.760Z,9.89
2019-05-12T04:39:04.621Z,9.89
2019-05-12T04:41:39.310Z,9.92
2019-05-12T04:44:15.294Z,9.99
2019-05-12T04:46:50.273Z,10.02
2019-05-12T04:49:25.271Z,9.87
2019-05-12T04:52:01.266Z,9.87
2019-05-12T04:54:37.617Z,9.90
2019-05-12T04:57:14.935Z,9.95
2019-05-12T04:59:49.683Z,10.07
2019-05-12T05:02:25.198Z,10.07
2019-05-12T05:04:59.715Z,10.18
2019-05-12T05:07:36.047Z,10.36
2019-05-12T05:10:10.866Z,10.41
2019-05-12T05:12:45.021Z,10.50
2019-05-12T05:15:19.688Z,10.62
2019-05-12T05:17:54.610Z,10.66
2019-05-12T05:20:29.272Z,10.63
2019-05-12T05:23:03.970Z,10.61
2019-05-12T05:25:38.537Z,10.58
2019-05-12T05:28:14.561Z,10.58
2019-05-12T05:32:16.337Z,10.72
2019-05-12T05:34:55.846Z,10.63
2019-05-12T05:37:30.694Z,10.43
2019-05-12T05:40:04.045Z,10.37
2019-05-12T05:42:38.640Z,10.43
2019-05-12T05:45:19.566Z,10.43
2019-05-12T05:47:48.909Z,10.41
2019-05-12T05:50:24.835Z,10.19
2019-05-12T05:53:00.242Z,10.19
2019-05-12T05:55:35.076Z,10.24
2019-05-12T05:58:10.606Z,10.26
2019-05-12T06:00:46.287Z,10.26
2019-05-12T06:03:27.212Z,10.34
2019-05-12T06:06:01.417Z,10.28
2019-05-12T06:08:35.107Z,10.34
2019-05-12T06:11:14.774Z,10.39
2019-05-12T06:13:46.124Z,10.39
2019-05-12T06:16:25.105Z,10.71
2019-05-12T06:18:58.322Z,10.86
2019-05-12T06:21:36.834Z,10.86
2019-05-12T06:24:14.272Z,10.90
2019-05-12T06:26:56.776Z,11.04
2019-05-12T06:29:22.701Z,11.06
2019-05-12T06:32:00.037Z,11.03
2019-05-12T06:34:34.598Z,10.98
2019-05-12T06:37:16.774Z,10.95
2019-05-12T06:39:45.291Z,10.91
2019-05-12T06:42:19.884Z,10.96
2019-05-12T06:44:57.917Z,11.00
2019-05-12T06:47:30.253Z,11.06
2019-05-12T06:50:05.275Z,11.08
2019-05-12T06:52:46.773Z,10.98
2019-05-12T06:55:55.669Z,11.09
2019-05-12T06:58:33.918Z,11.12
2019-05-12T07:01:11.067Z,11.12
2019-05-12T07:03:44.098Z,11.19
2019-05-12T07:06:19.967Z,11.27
2019-05-12T07:09:03.594Z,11.22
2019-05-12T07:11:41.669Z,11.22
2019-05-12T07:14:13.103Z,11.19
2019-05-12T07:16:45.263Z,11.00
2019-05-12T07:19:22.845Z,11.00
2019-05-12T07:21:59.839Z,10.94
2019-05-12T07:24:34.037Z,10.88
2019-05-12T07:27:09.390Z,10.88
2019-05-12T07:29:43.947Z,10.83
2019-05-12T07:32:24.017Z,10.87
2019-05-12T07:34:57.246Z,10.70
2019-05-12T07:37:34.925Z,10.70
2019-05-12T07:40:10.255Z,10.87
2019-05-12T07:42:45.620Z,10.91
2019-05-12T07:45:22.347Z,10.93
2019-05-12T07:47:59.575Z,11.02
2019-05-12T07:50:30.801Z,11.14
2019-05-12T07:53:04.942Z,11.16
2019-05-12T07:55:39.815Z,11.20
2019-05-12T07:58:18.694Z,11.24
2019-05-12T08:00:56.231Z,11.11
2019-05-12T08:03:27.697Z,11.18
2019-05-12T08:06:04.512Z,11.22
2019-05-12T08:08:41.908Z,11.36
2019-05-12T08:11:14.920Z,11.40
2019-05-12T08:13:49.615Z,11.39
2019-05-12T08:16:25.771Z,11.39
2019-05-12T08:18:59.936Z,11.41
2019-05-12T08:21:43.793Z,11.38
2019-05-12T08:24:11.332Z,11.42
2019-05-12T08:26:49.710Z,11.38
2019-05-12T08:29:24.255Z,11.34
2019-05-12T08:31:58.236Z,11.49
2019-05-12T08:34:34.070Z,11.67
2019-05-12T08:37:08.686Z,11.67
2019-05-12T08:39:44.241Z,12.05
2019-05-12T08:42:18.873Z,12.05
2019-05-12T08:44:54.127Z,12.24
2019-05-12T08:47:33.819Z,12.29
2019-05-12T08:50:05.115Z,12.00
2019-05-12T08:52:41.343Z,11.97
2019-05-12T08:55:16.932Z,11.97
2019-05-12T08:57:51.305Z,11.99
2019-05-12T09:00:39.566Z,11.99
2019-05-12T09:03:14.338Z,12.35
2019-05-12T09:05:49.269Z,12.73
2019-05-12T09:08:24.407Z,13.24
2019-05-12T09:10:58.936Z,13.24
2019-05-12T09:13:33.861Z,13.37
2019-05-12T09:16:09.819Z,14.43
2019-05-12T09:18:44.131Z,14.43
2019-05-12T09:21:23.640Z,14.92
2019-05-12T09:23:56.055Z,14.71
2019-05-12T09:26:30.685Z,14.55
2019-05-12T09:29:07.450Z,14.72
2019-05-12T09:31:39.877Z,15.90
2019-05-12T09:34:16.181Z,15.67
2019-05-12T09:36:51.905Z,15.26
2019-05-12T09:39:25.098Z,14.85
2019-05-12T09:41:59.683Z,15.14
2019-05-12T09:44:34.199Z,15.35
2019-05-12T09:47:19.514Z,15.21
2019-05-12T09:49:44.910Z,14.83
2019-05-12T09:52:22.171Z,14.62
2019-05-12T09:54:55.268Z,14.62
2019-05-12T09:57:32.414Z,15.59
2019-05-12T10:00:06.870Z,15.41
2019-05-12T10:02:43.432Z,15.21
2019-05-12T10:05:17.273Z,16.42
2019-05-12T10:07:53.535Z,16.48
2019-05-12T10:10:29.126Z,16.48
2019-05-12T10:13:04.701Z,15.75
2019-05-12T10:15:39.668Z,15.61
2019-05-12T10:18:14.449Z,15.61
2019-05-12T10:20:48.946Z,16.06
2019-05-12T10:23:25.131Z,17.25
2019-05-12T10:26:01.534Z,18.39
2019-05-12T10:28:34.942Z,16.54
2019-05-12T10:31:09.279Z,16.54
2019-05-12T10:33:43.891Z,15.71
2019-05-12T10:36:18.257Z,15.50
2019-05-12T10:38:53.841Z,17.03
2019-05-12T10:41:28.266Z,18.58
2019-05-12T10:44:04.065Z,20.49
2019-05-12T10:46:42.308Z,20.49
2019-05-12T10:49:15.193Z,21.64
2019-05-12T10:51:49.693Z,20.36
2019-05-12T10:54:24.332Z,19.98
2019-05-12T10:56:58.879Z,19.04
2019-05-12T10:59:38.327Z,19.04
2019-05-12T11:02:09.271Z,18.10
2019-05-12T11:04:44.078Z,18.15
2019-05-12T11:07:23.012Z,17.17
2019-05-12T11:09:54.789Z,17.17
2019-05-12T11:12:29.223Z,16.62
2019-05-12T11:15:06.665Z,17.39
2019-05-12T11:17:58.608Z,19.22
2019-05-12T11:20:34.315Z,20.02
2019-05-12T11:23:08.923Z,20.02
2019-05-12T11:25:44.018Z,21.67
2019-05-12T11:28:18.709Z,22.29
2019-05-12T11:30:53.256Z,22.29
2019-05-12T11:33:27.687Z,22.51
2019-05-12T11:36:04.264Z,22.51
2019-05-12T11:38:38.117Z,23.31
2019-05-12T11:41:16.077Z,21.55
2019-05-12T11:43:48.753Z,21.55
2019-05-12T11:46:23.772Z,19.88
2019-05-12T11:48:58.328Z,21.58
2019-05-12T11:51:34.056Z,23.34
2019-05-12T11:54:10.494Z,24.44
2019-05-12T11:56:46.618Z,20.31
2019-05-12T11:59:23.760Z,20.31
2019-05-12T12:01:56.668Z,20.99
2019-05-12T12:04:46.269Z,21.23
2019-05-12T12:07:20.692Z,23.43
2019-05-12T12:09:59.316Z,24.36
2019-05-12T12:12:30.943Z,23.79
2019-05-12T12:15:05.352Z,22.05
2019-05-12T12:17:39.952Z,23.24
2019-05-12T12:20:22.319Z,24.76
2019-05-12T12:22:54.877Z,25.67
2019-05-12T12:25:33.874Z,26.69
2019-05-12T12:28:07.674Z,23.55
2019-05-12T12:30:40.674Z,23.55
2019-05-12T12:33:15.935Z,24.09
2019-05-12T12:35:55.344Z,23.15
2019-05-12T12:38:26.093Z,24.08
2019-05-12T12:41:00.578Z,24.27
2019-05-12T12:43:34.941Z,24.27
2019-05-12T12:46:18.283Z,26.07
2019-05-12T12:48:50.859Z,25.29
2019-05-12T12:51:23.862Z,23.50
2019-05-12T12:53:58.278Z,23.60
2019-05-12T12:56:34.100Z,24.79
2019-05-12T12:59:10.762Z,26.07
2019-05-12T13:01:44.785Z,26.07
2019-05-12T13:04:17.862Z,25.47
2019-05-12T13:06:54.232Z,27.11
2019-05-12T13:09:28.249Z,28.30
2019-05-12T13:12:06.005Z,28.70
2019-05-12T13:14:38.695Z,28.98
2019-05-12T13:17:14.212Z,29.48
2019-05-12T13:19:53.639Z,29.16
2019-05-12T13:22:25.338Z,29.99
2019-05-12T13:25:04.581Z,27.91
2019-05-12T13:27:36.924Z,28.89
2019-05-12T13:30:19.818Z,29.69
2019-05-12T13:32:48.925Z,29.69
2019-05-12T13:35:23.798Z,29.53
2019-05-12T13:38:00.433Z,29.25
2019-05-12T13:40:36.082Z,27.75
2019-05-12T13:43:15.471Z,27.74
2019-05-12T13:45:46.906Z,27.74
2019-05-12T13:48:23.729Z,28.87
2019-05-12T13:51:07.549Z,27.35
2019-05-12T13:53:33.539Z,28.03
2019-05-12T13:56:07.938Z,28.06
2019-05-12T13:58:43.642Z,29.01
2019-05-12T14:01:20.383Z,28.79
2019-05-12T14:03:54.268Z,28.55
2019-05-12T14:06:32.980Z,29.21
2019-05-12T14:09:07.507Z,28.42
2019-05-12T14:11:43.767Z,28.08
2019-05-12T14:14:17.944Z,26.62
2019-05-12T14:16:59.134Z,26.62
2019-05-12T14:19:35.056Z,25.91
2019-05-12T14:22:05.320Z,25.05
2019-05-12T14:24:41.929Z,25.81
2019-05-12T14:27:19.254Z,27.24
2019-05-12T14:29:53.705Z,28.68
2019-05-12T14:32:28.265Z,29.40
2019-05-12T14:35:04.289Z,28.15
2019-05-12T14:37:40.460Z,27.77
2019-05-12T14:40:15.707Z,28.40
2019-05-12T14:42:50.113Z,28.44
2019-05-12T14:45:29.878Z,28.89
2019-05-12T14:48:07.539Z,27.55
2019-05-12T14:50:37.935Z,25.52
2019-05-12T14:53:13.844Z,25.52
2019-05-12T14:55:48.261Z,25.25
2019-05-12T14:58:23.654Z,25.67
2019-05-12T15:00:58.441Z,22.98
2019-05-12T15:03:34.260Z,22.98
2019-05-12T15:06:08.923Z,22.34
2019-05-12T15:08:43.638Z,22.39
2019-05-12T15:11:16.659Z,23.19
2019-05-12T15:13:50.928Z,22.27
2019-05-12T15:16:25.283Z,21.44
2019-05-12T15:18:59.947Z,22.48
2019-05-12T15:21:34.244Z,23.20
2019-05-12T15:24:33.700Z,23.19
2019-05-12T15:27:06.792Z,22.38
2019-05-12T15:29:40.947Z,21.34
2019-05-12T15:32:15.417Z,20.65
2019-05-12T15:34:49.949Z,20.41
2019-05-12T15:37:29.069Z,20.19
2019-05-12T15:40:00.699Z,20.19
2019-05-12T15:42:35.247Z,20.08
2019-05-12T15:45:12.892Z,19.82
2019-05-12T15:47:46.319Z,19.52
2019-05-12T15:50:20.776Z,19.39
2019-05-12T15:52:54.681Z,19.19
2019-05-12T15:55:33.005Z,18.80
2019-05-12T15:58:05.797Z,18.60
2019-05-12T16:00:38.861Z,18.54
2019-05-12T16:03:12.951Z,18.41
2019-05-12T16:05:47.314Z,18.21
2019-05-12T16:08:21.684Z,17.81
2019-05-12T16:10:56.251Z,17.81
2019-05-12T16:13:30.688Z,17.81
2019-05-12T16:16:06.755Z,17.82
2019-05-12T16:18:46.708Z,17.73
2019-05-12T16:21:17.288Z,17.65
2019-05-12T16:23:53.494Z,17.55
2019-05-12T16:26:27.961Z,17.47
2019-05-12T16:29:06.995Z,17.43
2019-05-12T16:31:48.255Z,17.32
2019-05-12T16:34:17.285Z,17.13
2019-05-12T16:36:52.649Z,17.06
2019-05-12T16:39:30.389Z,16.95
2019-05-12T16:42:06.206Z,16.90
2019-05-12T16:44:38.928Z,16.74
2019-05-12T16:47:18.366Z,16.75
2019-05-12T16:49:49.291Z,16.75
2019-05-12T16:52:24.365Z,16.78
2019-05-12T16:54:58.939Z,16.72
2019-05-12T16:57:33.733Z,16.60
2019-05-12T17:00:08.283Z,16.60
2019-05-12T17:02:52.089Z,16.44
2019-05-12T17:05:20.573Z,16.44
2019-05-12T17:07:55.826Z,16.35
2019-05-12T17:10:33.651Z,16.41
2019-05-12T17:13:13.136Z,16.39
2019-05-12T17:15:48.351Z,16.32
2019-05-12T17:18:19.948Z,16.32
2019-05-12T17:20:54.592Z,16.28
2019-05-12T17:23:29.095Z,16.23
2019-05-12T17:26:03.947Z,16.20
2019-05-12T17:28:38.342Z,16.13
2019-05-12T17:31:12.679Z,16.13
2019-05-12T17:33:45.796Z,16.09
2019-05-12T17:36:19.947Z,16.04
2019-05-12T17:38:56.259Z,15.98
2019-05-12T17:41:31.627Z,15.96
2019-05-12T17:44:05.134Z,15.96
2019-05-12T17:46:39.811Z,15.86
2019-05-12T17:49:21.298Z,15.86
2019-05-12T17:51:48.917Z,15.81
2019-05-12T17:54:26.217Z,15.68
2019-05-12T17:56:59.263Z,15.68
2019-05-12T17:59:33.713Z,15.65
2019-05-12T18:02:14.969Z,15.56
2019-05-12T18:04:44.200Z,15.58
2019-05-12T18:07:19.412Z,15.50
2019-05-12T18:09:56.715Z,15.50
2019-05-12T18:12:36.101Z,15.46
2019-05-12T18:15:06.299Z,15.41
2019-05-12T18:17:47.302Z,15.37
2019-05-12T18:20:17.334Z,15.27
2019-05-12T18:22:53.576Z,15.26
2019-05-12T18:25:30.404Z,15.26
2019-05-12T18:28:05.334Z,15.21
2019-05-12T18:30:39.681Z,15.09
2019-05-12T18:33:48.918Z,15.13
2019-05-12T18:36:18.154Z,15.05
2019-05-12T18:38:56.362Z,14.87
2019-05-12T18:41:28.883Z,14.87
2019-05-12T18:44:04.260Z,14.88
2019-05-12T18:46:44.864Z,14.79
2019-05-12T18:49:16.016Z,14.73
2019-05-12T18:51:55.189Z,14.70
2019-05-12T18:54:25.968Z,14.64
2019-05-12T18:57:04.179Z,14.57
2019-05-12T18:59:36.711Z,14.57
2019-05-12T19:02:14.658Z,14.53
2019-05-12T19:04:47.261Z,14.50
2019-05-12T19:07:38.314Z,14.42
2019-05-12T19:09:57.964Z,14.43
2019-05-12T19:12:34.835Z,14.38
2019-05-12T19:15:10.349Z,14.29
2019-05-12T19:17:45.795Z,14.23
2019-05-12T19:20:20.123Z,14.23
2019-05-12T19:22:59.796Z,14.14
2019-05-12T19:25:35.875Z,14.14
2019-05-12T19:28:10.401Z,14.10
2019-05-12T19:30:43.598Z,14.08
2019-05-12T19:33:17.689Z,14.02
2019-05-12T19:35:59.887Z,14.02
2019-05-12T19:38:28.112Z,14.01
2019-05-12T19:41:04.605Z,14.01
2019-05-12T19:43:39.341Z,14.01
2019-05-12T19:46:16.789Z,13.94
2019-05-12T19:48:51.274Z,13.91
2019-05-12T19:51:28.350Z,13.88
2019-05-12T19:54:03.517Z,13.90
2019-05-12T19:56:39.524Z,13.86
2019-05-12T19:59:14.681Z,13.85
2019-05-12T20:01:49.076Z,13.84
2019-05-12T20:04:33.232Z,13.79
2019-05-12T20:06:58.063Z,13.85
2019-05-12T20:09:32.336Z,13.78
2019-05-12T20:12:12.422Z,13.74
2019-05-12T20:14:43.487Z,13.74
2019-05-12T20:17:18.639Z,13.75
2019-05-12T20:19:53.994Z,13.72
2019-05-12T20:22:28.627Z,13.64
2019-05-12T20:25:04.336Z,13.64
2019-05-12T20:27:39.250Z,13.62
2019-05-12T20:30:18.901Z,13.58
2019-05-12T20:32:50.119Z,13.59
2019-05-12T20:35:24.593Z,13.57
2019-05-12T20:37:59.123Z,13.57
2019-05-12T20:40:37.698Z,13.55
2019-05-12T20:43:12.261Z,13.53
2019-05-12T20:45:45.973Z,13.52
2019-05-12T20:48:26.465Z,13.44
2019-05-12T20:50:57.289Z,13.40
2019-05-12T20:53:34.300Z,13.36
2019-05-12T20:56:12.157Z,13.36
2019-05-12T20:58:46.543Z,13.31
2019-05-12T21:01:28.289Z,13.29
2019-05-12T21:03:56.931Z,13.30
2019-05-12T21:06:41.323Z,13.29
2019-05-12T21:09:09.640Z,13.31
2019-05-12T21:11:44.298Z,13.26
2019-05-12T21:14:19.324Z,13.21
2019-05-12T21:16:54.069Z,13.07
2019-05-12T21:19:29.371Z,12.99
2019-05-12T21:22:04.777Z,12.95
2019-05-12T21:24:39.460Z,12.83
2019-05-12T21:27:17.930Z,12.86
2019-05-12T21:29:50.263Z,12.90
2019-05-12T21:32:24.755Z,12.90
2019-05-12T21:34:59.601Z,12.86
2019-05-12T21:37:37.121Z,12.83
2019-05-12T21:40:09.873Z,12.83
2019-05-12T21:42:44.641Z,12.83
2019-05-12T21:45:20.257Z,12.76
2019-05-12T21:47:56.739Z,12.68
2019-05-12T21:50:32.808Z,12.72
2019-05-12T21:53:10.139Z,12.78
2019-05-12T21:55:44.340Z,12.73
2019-05-12T21:58:19.115Z,12.71
2019-05-12T22:01:04.268Z,12.67
2019-05-12T22:03:34.966Z,12.67
2019-05-12T22:06:16.702Z,12.58
2019-05-12T22:08:45.934Z,12.54
2019-05-12T22:11:20.769Z,12.46
2019-05-12T22:14:00.080Z,12.46
2019-05-12T22:16:39.712Z,12.42
2019-05-12T22:21:23.717Z,12.30
2019-05-12T22:23:58.312Z,12.30
2019-05-12T22:26:39.673Z,12.21
2019-05-12T22:29:08.951Z,12.09
2019-05-12T22:31:46.435Z,12.09
2019-05-12T22:34:19.352Z,12.04
2019-05-12T22:36:57.866Z,11.97
2019-05-12T22:39:33.797Z,11.85
2019-05-12T22:42:11.634Z,11.85
2019-05-12T22:44:43.758Z,11.80
2019-05-12T22:47:17.603Z,11.77
2019-05-12T22:49:56.976Z,11.68
2019-05-12T22:52:33.752Z,11.54
2019-05-12T22:55:09.285Z,11.54
2019-05-12T22:57:44.290Z,11.48
2019-05-12T23:00:21.574Z,11.45
2019-05-12T23:03:00.459Z,11.38
2019-05-12T23:05:35.295Z,11.38
2019-05-12T23:08:10.264Z,11.35
2019-05-12T23:10:51.278Z,11.31
2019-05-12T23:13:20.786Z,11.25
2019-05-12T23:15:55.130Z,11.21
2019-05-12T23:18:30.930Z,11.17
2019-05-12T23:21:12.613Z,11.15
2019-05-12T23:23:43.643Z,11.06
2019-05-12T23:26:19.327Z,11.06
2019-05-12T23:28:54.953Z,11.05
2019-05-12T23:31:30.386Z,11.05
2019-05-12T23:34:06.476Z,11.02
2019-05-12T23:36:40.948Z,10.98
2019-05-12T23:39:14.963Z,10.96
2019-05-12T23:41:49.339Z,10.93
2019-05-12T23:44:24.074Z,10.89
2019-05-12T23:46:58.303Z,10.86
2019-05-12T23:49:33.735Z,10.86
2019-05-12T23:52:07.163Z,10.82
2019-05-12T23:54:41.335Z,10.82
2019-05-12T23:57:15.878Z,10.78
2019-05-12T23:59:49.279Z,10.68
